Roberts Field
KRDM : rendu visible

Aérodrome :











RETROUVEZ-NOUS SUR...

 
LOGIN :

S'inscrire | Disclaimer

   EN    FR    IT 

 









Légende :    VFR   VFR Marginal   IFR   IFR Intensif   IFR Très Intensif
Visi : 
Plafond : 
>= 8 km
>= 3000ft
5 à 8 km
1000 à 3000 ft
1500m à 5 km
500 à 1000 ft
800 à 1500m
200 à 500 ft
< 800m
< 200 ft
Symboles :   Orages  Brouillard  Fortes neiges  Fortes précipitations  Vent > 20 kt






- Altitude de l'aérodrome : 3080 ft
- Code IATA : RDM


KRDM - Roberts Field

DERNIER METAR :
  • 231956Z 25028G37KT 10SM CLR 12/M02 A3001 RMK AO2 PK WND 24039/1915 SLP167 T01221017

METARs EXPIRÉS :
  • 231856Z 25028G40KT 9SM CLR 13/M02 A2998 RMK AO2 PK WND 26040/1851 SLP155 T01281022
  • 231756Z 22016G23KT 10SM CLR 12/M01 A2999 RMK AO2 SLP162 T01221011 10122 20006 58012

TAF KRDM
Valide du 23 à 18h jusqu'au 24 à 18h UTC


231727Z 2318/2418 21016G24KT P6SM VCSH SCT040 OVC050
FM232000 27026G36KT P6SM SCT050
FM240300 30014G22KT P6SM SCT050
FM240800 27006KT P6SM SKC
FM241200 VRB04KT P6SM SKC



MET'MAP, la Météo Aéronautique d'un coup d'oeil ! - Copyright ORBIFLY Décembre 2007 - Disclaimer

ORBIFLY MET'MAP TEAM :

Programmation & Développement : Alexandra Zaïnal
Sur une idée originale de : Baudouin d'Aumeries
Assistance à la programmation : Marc-Olivier Méhu
Soutien technique & logistique : Manuel Goepfert

Contact : metmap@orbifly.com




SOURCES & CREDITS :

   NOAA       Earth
Advisory